Time;durP1;ratioP1;P1;durP2;ratioP2;P2;SDS_P1;SDS_P2;PMS_P1;PMS_P2;Temp;Humidity;BMP_temperature;BMP_pressure;BME280_temperature;BME280_humidity;BME280_pressure;Samples;Min_cycle;Max_cycle;Signal;HPM_P1;HPM_P2
2022/07/27 00:00:57;;;;;;;;;;;;;;;;;;5138777;27;20368;-85
2022/07/27 00:03:23;;;;;;;;;;;;;;;;;;5138663;27;19922;-85
2022/07/27 00:05:48;;;;;;;;;;;;;;;;;;5143657;27;19915;-84
2022/07/27 00:08:14;;;;;;;;;;;;;;;;;;5141772;27;19972;-86
2022/07/27 00:10:39;;;;;;;;;;;;;;;;;;5140299;27;19916;-86
2022/07/27 00:13:04;;;;;;;;;;;;;;;;;;5139751;27;19980;-86
2022/07/27 00:15:30;;;;;;;;;;;;;;;;;;5142371;27;19915;-86
2022/07/27 00:17:59;;;;;;;;;;;;;;;;;;5141218;27;19951;-85
2022/07/27 00:20:25;;;;;;;;;;;;;;;;;;5139691;27;19916;-84
2022/07/27 00:22:50;;;;;;;;;;;;;;;;;;5138423;27;19911;-85
2022/07/27 00:25:15;;;;;;;;;;;;;;;;;;5139781;27;19965;-86
2022/07/27 00:27:41;;;;;;;;;;;;;;;;;;5139780;27;19965;-86
2022/07/27 00:30:06;;;;;;;;;;;;;;;;;;5139473;27;19998;-85
2022/07/27 00:32:31;;;;;;;;;;;;;;;;;;5139856;27;19915;-85
2022/07/27 00:34:57;;;;;;;;;;;;;;;;;;5139576;27;19923;-86
2022/07/27 00:37:22;;;;;;;;;;;;;;;;;;5147337;27;19927;-86
2022/07/27 00:39:47;;;;;;;;;;;;;;;;;;5141135;27;19915;-85
2022/07/27 00:42:12;;;;;;;;;;;;;;;;;;5139490;27;20321;-86
2022/07/27 00:44:38;;;;;;;;;;;;;;;;;;5138790;27;19919;-85
2022/07/27 00:47:03;;;;;;;;;;;;;;;;;;5139123;27;19919;-85
2022/07/27 00:49:28;;;;;;;;;;;;;;;;;;5142791;27;19979;-87
2022/07/27 00:51:54;;;;;;;;;;;;;;;;;;5140267;27;19915;-86
2022/07/27 00:54:22;;;;;;;;;;;;;;;;;;5139808;27;20380;-85
2022/07/27 00:56:48;;;;;;;;;;;;;;;;;;5141670;27;19966;-85
2022/07/27 00:59:13;;;;;;;;;;;;;;;;;;5139004;27;19966;-86
2022/07/27 01:01:38;;;;;;;;;;;;;;;;;;5138972;27;20040;-86
2022/07/27 01:04:04;;;;;;;;;;;;;;;;;;5137859;27;19967;-85
2022/07/27 01:06:29;;;;;;;;;;;;;;;;;;5137579;27;19916;-86
2022/07/27 01:09:55;;;;;;;;;;;;;;;;;;5138415;27;19915;-86
2022/07/27 01:11:40;;;;;;;;;;;;;;;;;;5141111;27;20010;-84
2022/07/27 01:14:06;;;;;;;;;;;;;;;;;;5140144;27;19959;-85
2022/07/27 01:16:31;;;;;;;;;;;;;;;;;;5120670;27;19915;-84
2022/07/27 01:18:56;;;;;;;;;;;;;;;;;;5140390;27;19915;-86
2022/07/27 01:21:22;;;;;;;;;;;;;;;;;;5138447;27;19915;-85
2022/07/27 01:23:47;;;;;;;;;;;;;;;;;;5138791;27;19915;-85
2022/07/27 01:26:12;;;;;;;;;;;;;;;;;;5141363;27;19941;-86
2022/07/27 01:28:41;;;;;;;;;;;;;;;;;;5144371;27;19919;-86
2022/07/27 01:31:06;;;;;;;;;;;;;;;;;;5141117;27;19922;-86
2022/07/27 01:33:32;;;;;;;;;;;;;;;;;;5143074;27;19915;-83
2022/07/27 01:35:57;;;;;;;;;;;;;;;;;;5142167;27;19922;-85
2022/07/27 01:38:22;;;;;;;;;;;;;;;;;;5148827;27;19922;-86
2022/07/27 01:40:48;;;;;;;;;;;;;;;;;;5142917;27;19915;-86
2022/07/27 01:43:14;;;;;;;;;;;;;;;;;;5138403;27;19916;-85
2022/07/27 01:45:39;;;;;;;;;;;;;;;;;;5138241;27;20402;-87
2022/07/27 01:48:04;;;;;;;;;;;;;;;;;;5138321;27;20360;-86
2022/07/27 01:50:30;;;;;;;;;;;;;;;;;;5138255;27;20233;-86
2022/07/27 01:52:55;;;;;;;;;;;;;;;;;;5119399;27;19916;-87
2022/07/27 01:55:20;;;;;;;;;;;;;;;;;;5140051;27;19919;-86
2022/07/27 01:57:46;;;;;;;;;;;;;;;;;;5142797;27;19916;-87
2022/07/27 02:00:11;;;;;;;;;;;;;;;;;;5148626;27;19913;-86
2022/07/27 02:02:37;;;;;;;;;;;;;;;;;;5137560;27;19938;-87
2022/07/27 02:05:02;;;;;;;;;;;;;;;;;;5119820;27;19923;-86
2022/07/27 02:07:28;;;;;;;;;;;;;;;;;;5136407;27;19915;-86
2022/07/27 02:09:53;;;;;;;;;;;;;;;;;;5136265;27;19965;-85
2022/07/27 02:12:37;;;;;;;;;;;;;;;;;;5138226;27;19964;-85
2022/07/27 02:15:09;;;;;;;;;;;;;;;;;;5121838;27;19915;-87
2022/07/27 02:17:35;;;;;;;;;;;;;;;;;;5147204;27;19916;-87
2022/07/27 02:20:00;;;;;;;;;;;;;;;;;;5140743;27;19915;-86
2022/07/27 02:22:26;;;;;;;;;;;;;;;;;;5152553;27;19940;-87
2022/07/27 02:24:51;;;;;;;;;;;;;;;;;;5143276;27;19979;-86
2022/07/27 02:27:16;;;;;;;;;;;;;;;;;;5136273;27;19915;-87
2022/07/27 02:29:42;;;;;;;;;;;;;;;;;;5136279;27;19964;-85
2022/07/27 02:32:07;;;;;;;;;;;;;;;;;;5136205;27;19964;-86
2022/07/27 02:34:32;;;;;;;;;;;;;;;;;;5137106;27;19923;-85
2022/07/27 02:36:57;;;;;;;;;;;;;;;;;;5137142;27;19915;-86
2022/07/27 02:39:23;;;;;;;;;;;;;;;;;;5146266;27;19911;-84
2022/07/27 02:41:48;;;;;;;;;;;;;;;;;;5146272;27;19919;-85
2022/07/27 02:44:14;;;;;;;;;;;;;;;;;;5152307;27;19915;-86
2022/07/27 02:46:39;;;;;;;;;;;;;;;;;;5136696;27;19930;-86
2022/07/27 02:49:05;;;;;;;;;;;;;;;;;;5137126;27;19964;-84
2022/07/27 02:51:30;;;;;;;;;;;;;;;;;;5136660;27;20018;-88
2022/07/27 02:53:55;;;;;;;;;;;;;;;;;;5118014;27;19915;-86
2022/07/27 02:56:21;;;;;;;;;;;;;;;;;;5135256;27;20014;-85
2022/07/27 02:58:46;;;;;;;;;;;;;;;;;;5137001;27;19963;-86
2022/07/27 03:01:11;;;;;;;;;;;;;;;;;;5143483;27;19975;-86
2022/07/27 03:03:36;;;;;;;;;;;;;;;;;;5148024;27;19994;-88
2022/07/27 03:06:02;;;;;;;;;;;;;;;;;;5137784;27;19952;-87
2022/07/27 03:08:27;;;;;;;;;;;;;;;;;;5135346;27;19915;-85
2022/07/27 03:10:53;;;;;;;;;;;;;;;;;;5136473;27;19926;-87
2022/07/27 03:13:18;;;;;;;;;;;;;;;;;;5136421;27;19923;-85
2022/07/27 03:15:43;;;;;;;;;;;;;;;;;;5136507;27;19915;-88
2022/07/27 03:18:08;;;;;;;;;;;;;;;;;;5134946;27;19974;-85
2022/07/27 03:20:34;;;;;;;;;;;;;;;;;;5136415;27;19915;-85
2022/07/27 03:23:00;;;;;;;;;;;;;;;;;;5136303;27;19955;-88
2022/07/27 03:25:25;;;;;;;;;;;;;;;;;;5140400;27;20305;-85
2022/07/27 03:27:51;;;;;;;;;;;;;;;;;;5137683;27;19995;-88
2022/07/27 03:30:16;;;;;;;;;;;;;;;;;;5134906;27;20060;-85
2022/07/27 03:32:41;;;;;;;;;;;;;;;;;;5135175;27;20355;-86
2022/07/27 03:35:07;;;;;;;;;;;;;;;;;;5136315;27;19964;-88
2022/07/27 03:37:32;;;;;;;;;;;;;;;;;;5134799;27;20026;-85
2022/07/27 03:39:58;;;;;;;;;;;;;;;;;;5136188;27;19967;-85
2022/07/27 03:42:23;;;;;;;;;;;;;;;;;;5136320;27;19915;-85
2022/07/27 03:44:49;;;;;;;;;;;;;;;;;;5140757;27;19915;-86
2022/07/27 03:47:14;;;;;;;;;;;;;;;;;;5142690;27;19980;-85
2022/07/27 03:49:40;;;;;;;;;;;;;;;;;;5135957;27;19919;-87
2022/07/27 03:52:05;;;;;;;;;;;;;;;;;;5135677;27;19915;-88
2022/07/27 03:54:31;;;;;;;;;;;;;;;;;;5135659;27;19972;-86
2022/07/27 03:56:56;;;;;;;;;;;;;;;;;;5136301;27;19919;-86
2022/07/27 03:59:22;;;;;;;;;;;;;;;;;;5134932;27;20004;-87
2022/07/27 04:01:47;;;;;;;;;;;;;;;;;;5136002;27;19922;-84
2022/07/27 04:04:12;;;;;;;;;;;;;;;;;;5135717;27;20002;-87
2022/07/27 04:06:38;;;;;;;;;;;;;;;;;;5147883;27;19923;-87
2022/07/27 04:09:03;;;;;;;;;;;;;;;;;;5140814;27;19916;-87
2022/07/27 04:11:28;;;;;;;;;;;;;;;;;;5136171;27;19923;-85
2022/07/27 04:13:54;;;;;;;;;;;;;;;;;;5134891;27;19922;-86
2022/07/27 04:16:19;;;;;;;;;;;;;;;;;;5135834;27;19916;-85
2022/07/27 04:18:45;;;;;;;;;;;;;;;;;;5135756;27;20309;-86
2022/07/27 04:21:10;;;;;;;;;;;;;;;;;;5135570;27;20002;-86
2022/07/27 04:23:36;;;;;;;;;;;;;;;;;;5135719;27;19972;-86
2022/07/27 04:26:01;;;;;;;;;;;;;;;;;;5135782;27;19915;-85
2022/07/27 04:28:26;;;;;;;;;;;;;;;;;;5143639;28;19919;-85
2022/07/27 04:30:52;;;;;;;;;;;;;;;;;;5139020;27;19980;-85
2022/07/27 04:33:17;;;;;;;;;;;;;;;;;;5134567;27;19919;-86
2022/07/27 04:35:42;;;;;;;;;;;;;;;;;;5135112;27;19919;-86
2022/07/27 04:38:08;;;;;;;;;;;;;;;;;;5135321;27;19916;-88
2022/07/27 04:40:33;;;;;;;;;;;;;;;;;;5134457;27;19915;-85
2022/07/27 04:42:59;;;;;;;;;;;;;;;;;;5136561;27;19923;-86
2022/07/27 04:45:24;;;;;;;;;;;;;;;;;;5139359;27;19915;-86
2022/07/27 04:47:50;;;;;;;;;;;;;;;;;;5140629;27;20236;-88
2022/07/27 04:50:15;;;;;;;;;;;;;;;;;;5148162;27;19922;-85
2022/07/27 04:52:40;;;;;;;;;;;;;;;;;;5139525;27;20334;-85
2022/07/27 04:55:06;;;;;;;;;;;;;;;;;;5120511;27;19923;-86
2022/07/27 04:57:32;;;;;;;;;;;;;;;;;;5139562;27;19969;-87
2022/07/27 04:59:57;;;;;;;;;;;;;;;;;;5139221;27;20315;-87
2022/07/27 05:02:25;;;;;;;;;;;;;;;;;;5139333;27;19936;-84
2022/07/27 05:04:50;;;;;;;;;;;;;;;;;;5139202;27;19922;-87
2022/07/27 05:07:15;;;;;;;;;;;;;;;;;;5139166;27;20256;-85
2022/07/27 05:09:41;;;;;;;;;;;;;;;;;;5142251;27;19915;-86
2022/07/27 05:12:06;;;;;;;;;;;;;;;;;;5150560;27;19967;-85
2022/07/27 05:14:31;;;;;;;;;;;;;;;;;;5139449;27;19919;-86
2022/07/27 05:16:57;;;;;;;;;;;;;;;;;;5137780;27;19915;-87
2022/07/27 05:19:23;;;;;;;;;;;;;;;;;;5140318;27;19919;-85
2022/07/27 05:21:49;;;;;;;;;;;;;;;;;;5144718;27;20320;-84
2022/07/27 05:24:14;;;;;;;;;;;;;;;;;;5146324;27;19915;-83
2022/07/27 05:26:40;;;;;;;;;;;;;;;;;;5149758;27;19922;-85
2022/07/27 05:29:05;;;;;;;;;;;;;;;;;;5153403;27;19922;-85
2022/07/27 05:31:30;;;;;;;;;;;;;;;;;;5155615;27;19916;-85
2022/07/27 05:33:56;;;;;;;;;;;;;;;;;;5145001;27;20868;-86
2022/07/27 05:36:21;;;;;;;;;;;;;;;;;;5139356;27;19915;-87
2022/07/27 05:38:49;;;;;;;;;;;;;;;;;;5145576;27;19915;-87
2022/07/27 05:41:14;;;;;;;;;;;;;;;;;;5146315;27;19922;-88
2022/07/27 05:43:40;;;;;;;;;;;;;;;;;;5148150;27;19915;-87
2022/07/27 05:46:06;;;;;;;;;;;;;;;;;;5150997;27;19915;-85
2022/07/27 05:48:31;;;;;;;;;;;;;;;;;;5146308;27;19964;-82
2022/07/27 05:50:57;;;;;;;;;;;;;;;;;;5142605;27;19927;-83
2022/07/27 05:53:22;;;;;;;;;;;;;;;;;;5144806;27;20015;-84
2022/07/27 05:55:47;;;;;;;;;;;;;;;;;;5139823;27;19920;-86
2022/07/27 05:58:13;;;;;;;;;;;;;;;;;;5139995;27;19916;-84
2022/07/27 06:00:38;;;;;;;;;;;;;;;;;;5143751;27;19926;-86
2022/07/27 06:03:03;;;;;;;;;;;;;;;;;;5138228;27;19923;-86
2022/07/27 06:05:29;;;;;;;;;;;;;;;;;;5139193;27;19930;-84
2022/07/27 06:08:05;;;;;;;;;;;;;;;;;;5137419;27;19919;-85
2022/07/27 06:10:31;;;;;;;;;;;;;;;;;;5138401;27;19972;-83
2022/07/27 06:12:56;;;;;;;;;;;;;;;;;;5148704;27;19919;-83
2022/07/27 06:15:22;;;;;;;;;;;;;;;;;;5141410;27;19915;-83
2022/07/27 06:17:48;;;;;;;;;;;;;;;;;;5138868;27;19915;-84
2022/07/27 06:20:13;;;;;;;;;;;;;;;;;;5138478;27;19923;-83
2022/07/27 06:22:44;;;;;;;;;;;;;;;;;;5138360;27;19916;-84
2022/07/27 06:25:11;;;;;;;;;;;;;;;;;;5138125;27;19929;-86
2022/07/27 06:27:36;;;;;;;;;;;;;;;;;;5136692;27;19972;-85
2022/07/27 06:30:03;;;;;;;;;;;;;;;;;;5137651;27;20382;-85
2022/07/27 06:32:28;;;;;;;;;;;;;;;;;;5139300;27;20010;-83
2022/07/27 06:34:53;;;;;;;;;;;;;;;;;;5146582;27;19916;-85
2022/07/27 06:37:18;;;;;;;;;;;;;;;;;;5137593;27;20254;-84
2022/07/27 06:39:45;;;;;;;;;;;;;;;;;;5136898;27;19916;-83
2022/07/27 06:42:13;;;;;;;;;;;;;;;;;;5137487;27;20290;-84
2022/07/27 06:44:38;;;;;;;;;;;;;;;;;;5137722;27;19966;-84
2022/07/27 06:47:04;;;;;;;;;;;;;;;;;;5137296;27;19922;-87
2022/07/27 06:49:29;;;;;;;;;;;;;;;;;;5137201;27;19977;-85
2022/07/27 06:51:54;;;;;;;;;;;;;;;;;;5135837;27;19915;-84
2022/07/27 06:54:21;;;;;;;;;;;;;;;;;;5146645;27;20016;-83
2022/07/27 06:56:46;;;;;;;;;;;;;;;;;;5137692;27;20309;-84
2022/07/27 06:59:11;;;;;;;;;;;;;;;;;;5137562;27;19970;-83
2022/07/27 07:01:36;;;;;;;;;;;;;;;;;;5137060;27;20221;-83
2022/07/27 07:04:02;;;;;;;;;;;;;;;;;;5136827;27;20343;-83
2022/07/27 07:06:27;;;;;;;;;;;;;;;;;;5135960;27;20351;-83
2022/07/27 07:08:53;;;;;;;;;;;;;;;;;;5135642;27;19931;-83
2022/07/27 07:11:18;;;;;;;;;;;;;;;;;;5136958;27;19980;-84
2022/07/27 07:13:43;;;;;;;;;;;;;;;;;;5139780;27;19922;-84
2022/07/27 07:16:09;;;;;;;;;;;;;;;;;;5143067;27;19926;-83
2022/07/27 07:18:34;;;;;;;;;;;;;;;;;;5137344;27;19980;-85
2022/07/27 07:21:00;;;;;;;;;;;;;;;;;;5135793;27;19915;-84
2022/07/27 07:23:25;;;;;;;;;;;;;;;;;;5137133;27;19962;-88
2022/07/27 07:25:51;;;;;;;;;;;;;;;;;;5137150;27;19951;-85
2022/07/27 07:28:20;;;;;;;;;;;;;;;;;;5135267;27;19951;-84
2022/07/27 07:30:47;;;;;;;;;;;;;;;;;;5118429;27;20088;-85
2022/07/27 07:33:13;;;;;;;;;;;;;;;;;;5142142;27;19916;-84
2022/07/27 07:35:38;;;;;;;;;;;;;;;;;;5149703;27;19946;-84
2022/07/27 07:38:03;;;;;;;;;;;;;;;;;;5146407;27;19998;-84
2022/07/27 07:40:29;;;;;;;;;;;;;;;;;;5141051;27;19915;-82
2022/07/27 07:42:59;;;;;;;;;;;;;;;;;;5136888;27;20269;-83
2022/07/27 07:45:24;;;;;;;;;;;;;;;;;;5118354;27;19915;-84
2022/07/27 07:47:49;;;;;;;;;;;;;;;;;;5135435;27;19920;-85
2022/07/27 07:50:15;;;;;;;;;;;;;;;;;;5136959;27;20305;-83
2022/07/27 07:52:41;;;;;;;;;;;;;;;;;;5136325;27;19998;-82
2022/07/27 07:55:06;;;;;;;;;;;;;;;;;;5134978;27;19927;-83
2022/07/27 07:57:34;;;;;;;;;;;;;;;;;;5147401;27;19916;-84
2022/07/27 07:59:59;;;;;;;;;;;;;;;;;;5138090;27;19922;-84
2022/07/27 08:02:44;;;;;;;;;;;;;;;;;;5137264;27;20260;-84
2022/07/27 08:05:09;;;;;;;;;;;;;;;;;;5136364;27;19989;-84
2022/07/27 08:07:35;;;;;;;;;;;;;;;;;;5136020;27;20337;-83
2022/07/27 08:10:00;;;;;;;;;;;;;;;;;;5135715;27;19965;-83
2022/07/27 08:12:26;;;;;;;;;;;;;;;;;;5135909;27;19919;-83
2022/07/27 08:14:51;;;;;;;;;;;;;;;;;;5136118;27;20358;-84
2022/07/27 08:17:17;;;;;;;;;;;;;;;;;;5138115;27;19900;-82
2022/07/27 08:19:43;;;;;;;;;;;;;;;;;;5154700;27;19953;-84
2022/07/27 08:22:09;;;;;;;;;;;;;;;;;;5140929;27;20340;-83
2022/07/27 08:24:34;;;;;;;;;;;;;;;;;;5140032;27;19919;-85
2022/07/27 08:27:00;;;;;;;;;;;;;;;;;;5138595;27;19919;-84
2022/07/27 08:29:25;;;;;;;;;;;;;;;;;;5139978;27;19919;-84
2022/07/27 08:31:50;;;;;;;;;;;;;;;;;;5138504;27;20538;-82
2022/07/27 08:34:16;;;;;;;;;;;;;;;;;;5139835;27;20014;-85
2022/07/27 08:36:41;;;;;;;;;;;;;;;;;;5140086;27;20080;-84
2022/07/27 08:39:07;;;;;;;;;;;;;;;;;;5143620;27;19915;-82
2022/07/27 08:41:33;;;;;;;;;;;;;;;;;;5146957;27;19920;-83
2022/07/27 08:43:59;;;;;;;;;;;;;;;;;;5139622;27;20062;-84
2022/07/27 08:46:24;;;;;;;;;;;;;;;;;;5140787;27;19925;-83
2022/07/27 08:48:50;;;;;;;;;;;;;;;;;;5142613;27;19980;-84
2022/07/27 08:51:15;;;;;;;;;;;;;;;;;;5140773;27;19915;-84
2022/07/27 08:53:41;;;;;;;;;;;;;;;;;;5140296;27;19916;-83
2022/07/27 08:56:07;;;;;;;;;;;;;;;;;;5139975;27;20308;-83
2022/07/27 08:58:32;;;;;;;;;;;;;;;;;;5139369;27;19915;-84
2022/07/27 09:00:57;;;;;;;;;;;;;;;;;;5145305;27;19916;-82
2022/07/27 09:03:23;;;;;;;;;;;;;;;;;;5144992;27;19915;-84
2022/07/27 09:05:48;;;;;;;;;;;;;;;;;;5139578;27;19915;-84
2022/07/27 09:08:14;;;;;;;;;;;;;;;;;;5139960;27;19915;-83
2022/07/27 09:10:40;;;;;;;;;;;;;;;;;;5139408;27;19964;-84
2022/07/27 09:13:17;;;;;;;;;;;;;;;;;;5138363;27;19919;-84
2022/07/27 09:15:46;;;;;;;;;;;;;;;;;;5138313;27;20257;-83
2022/07/27 09:18:15;;;;;;;;;;;;;;;;;;5137543;27;19915;-84
2022/07/27 09:20:41;;;;;;;;;;;;;;;;;;5138623;27;19915;-85
2022/07/27 09:23:06;;;;;;;;;;;;;;;;;;5147136;27;19929;-84
2022/07/27 09:25:34;;;;;;;;;;;;;;;;;;5143416;27;20007;-84
2022/07/27 09:27:59;;;;;;;;;;;;;;;;;;5137528;27;19964;-84
2022/07/27 09:30:26;;;;;;;;;;;;;;;;;;5137845;27;19915;-83
2022/07/27 09:32:58;;;;;;;;;;;;;;;;;;5120227;27;20005;-82
2022/07/27 09:35:24;;;;;;;;;;;;;;;;;;5138099;27;20325;-86
2022/07/27 09:37:49;;;;;;;;;;;;;;;;;;5138457;27;19916;-83
2022/07/27 09:40:16;;;;;;;;;;;;;;;;;;5138133;27;19921;-84
2022/07/27 09:42:41;;;;;;;;;;;;;;;;;;5138000;27;20202;-83
2022/07/27 09:45:25;;;;;;;;;;;;;;;;;;5147926;27;19922;-83
2022/07/27 09:47:52;;;;;;;;;;;;;;;;;;5139467;27;19926;-83
2022/07/27 09:50:18;;;;;;;;;;;;;;;;;;5138179;27;19935;-83
2022/07/27 09:52:43;;;;;;;;;;;;;;;;;;5139364;27;19923;-84
2022/07/27 09:55:09;;;;;;;;;;;;;;;;;;5137998;27;19976;-82
2022/07/27 09:57:50;;;;;;;;;;;;;;;;;;5139875;27;19915;-84
2022/07/27 10:00:16;;;;;;;;;;;;;;;;;;5138205;27;20549;-83
2022/07/27 10:02:42;;;;;;;;;;;;;;;;;;5137693;27;19972;-84
2022/07/27 10:05:07;;;;;;;;;;;;;;;;;;5137254;27;19922;-84
2022/07/27 10:07:33;;;;;;;;;;;;;;;;;;5148135;27;19919;-83
2022/07/27 10:09:59;;;;;;;;;;;;;;;;;;5120752;27;19947;-82
2022/07/27 10:12:27;;;;;;;;;;;;;;;;;;5139582;27;19973;-83
2022/07/27 10:14:52;;;;;;;;;;;;;;;;;;5138287;27;20013;-83
2022/07/27 10:17:18;;;;;;;;;;;;;;;;;;5137453;27;19959;-84
2022/07/27 10:19:44;;;;;;;;;;;;;;;;;;5136482;27;19942;-84
2022/07/27 10:22:09;;;;;;;;;;;;;;;;;;5119088;27;19998;-84
2022/07/27 10:24:35;;;;;;;;;;;;;;;;;;5137229;27;20014;-83
2022/07/27 10:27:23;;;;;;;;;;;;;;;;;;5139628;27;19954;-83
2022/07/27 10:29:49;;;;;;;;;;;;;;;;;;5130913;27;20234;-84
2022/07/27 10:32:22;;;;;;;;;;;;;;;;;;5137874;27;19964;-83
2022/07/27 10:34:48;;;;;;;;;;;;;;;;;;5119230;27;19945;-83
2022/07/27 10:37:23;;;;;;;;;;;;;;;;;;5136226;27;19915;-83
2022/07/27 10:39:49;;;;;;;;;;;;;;;;;;5136751;27;19918;-83
2022/07/27 10:42:25;;;;;;;;;;;;;;;;;;5135147;27;19916;-83
2022/07/27 10:45:00;;;;;;;;;;;;;;;;;;5135858;27;19916;-84
2022/07/27 10:47:26;;;;;;;;;;;;;;;;;;5137046;27;20027;-84
2022/07/27 10:49:52;;;;;;;;;;;;;;;;;;5146682;27;19949;-84
2022/07/27 10:52:44;;;;;;;;;;;;;;;;;;5119969;27;20325;-83
2022/07/27 10:55:28;;;;;;;;;;;;;;;;;;5132418;27;20403;-84
2022/07/27 10:57:54;;;;;;;;;;;;;;;;;;5137181;27;19915;-83
2022/07/27 11:00:19;;;;;;;;;;;;;;;;;;5136830;27;19998;-83
2022/07/27 11:02:45;;;;;;;;;;;;;;;;;;5136659;27;20317;-82
2022/07/27 11:05:11;;;;;;;;;;;;;;;;;;5136024;27;19922;-83
2022/07/27 11:07:37;;;;;;;;;;;;;;;;;;5136754;27;20275;-84
2022/07/27 11:10:03;;;;;;;;;;;;;;;;;;5135650;27;19915;-84
2022/07/27 11:12:28;;;;;;;;;;;;;;;;;;5146866;27;19926;-83
2022/07/27 11:14:54;;;;;;;;;;;;;;;;;;5136754;27;19915;-85
2022/07/27 11:17:20;;;;;;;;;;;;;;;;;;5137137;27;19915;-84
2022/07/27 11:19:55;;;;;;;;;;;;;;;;;;5134919;27;19973;-83
2022/07/27 11:22:41;;;;;;;;;;;;;;;;;;5136002;27;19915;-84
2022/07/27 11:25:06;;;;;;;;;;;;;;;;;;5136161;27;19946;-84
2022/07/27 11:27:32;;;;;;;;;;;;;;;;;;5136346;27;19922;-84
2022/07/27 11:29:57;;;;;;;;;;;;;;;;;;5136391;27;20280;-84
2022/07/27 11:32:23;;;;;;;;;;;;;;;;;;5142542;27;19919;-83
2022/07/27 11:34:48;;;;;;;;;;;;;;;;;;5143275;27;19920;-85
2022/07/27 11:37:17;;;;;;;;;;;;;;;;;;5137030;27;20241;-83
2022/07/27 11:39:43;;;;;;;;;;;;;;;;;;5137582;27;19919;-84
2022/07/27 11:42:11;;;;;;;;;;;;;;;;;;5136757;27;19923;-84
2022/07/27 11:44:37;;;;;;;;;;;;;;;;;;5136186;27;20014;-83
2022/07/27 11:47:02;;;;;;;;;;;;;;;;;;5135438;27;19956;-83
2022/07/27 11:49:28;;;;;;;;;;;;;;;;;;5137814;27;20339;-83
2022/07/27 11:52:03;;;;;;;;;;;;;;;;;;5137061;27;20036;-85
2022/07/27 11:54:35;;;;;;;;;;;;;;;;;;5145987;27;19908;-82
2022/07/27 11:57:01;;;;;;;;;;;;;;;;;;5122250;27;19915;-83
2022/07/27 11:59:27;;;;;;;;;;;;;;;;;;5137101;27;20337;-84
2022/07/27 12:01:53;;;;;;;;;;;;;;;;;;5134565;27;19972;-83
2022/07/27 12:04:22;;;;;;;;;;;;;;;;;;5135234;27;19919;-89
2022/07/27 12:06:52;;;;;;;;;;;;;;;;;;5134977;27;19916;-88
2022/07/27 12:09:18;;;;;;;;;;;;;;;;;;5136239;27;19916;-89
2022/07/27 12:11:48;;;;;;;;;;;;;;;;;;5118344;27;19922;-89
2022/07/27 12:14:14;;;;;;;;;;;;;;;;;;5136536;27;19922;-90
2022/07/27 12:16:39;;;;;;;;;;;;;;;;;;5149813;27;20006;-86
2022/07/27 12:19:05;;;;;;;;;;;;;;;;;;5137853;27;19916;-88
2022/07/27 12:21:30;;;;;;;;;;;;;;;;;;5135878;27;20314;-86
2022/07/27 12:23:57;;;;;;;;;;;;;;;;;;5134621;27;19916;-87
2022/07/27 12:26:24;;;;;;;;;;;;;;;;;;5134356;27;19922;-87
2022/07/27 12:29:08;;;;;;;;;;;;;;;;;;5135338;27;19915;-87
2022/07/27 12:31:34;;;;;;;;;;;;;;;;;;5135912;27;20298;-88
2022/07/27 12:34:01;;;;;;;;;;;;;;;;;;5135401;27;19916;-88
2022/07/27 12:36:26;;;;;;;;;;;;;;;;;;5141227;27;19933;-87
2022/07/27 12:38:52;;;;;;;;;;;;;;;;;;5146871;27;20303;-89
2022/07/27 12:41:25;;;;;;;;;;;;;;;;;;5136127;27;19972;-89
2022/07/27 12:44:09;;;;;;;;;;;;;;;;;;5135605;27;19962;-88
2022/07/27 12:46:53;;;;;;;;;;;;;;;;;;5135776;27;19990;-89
2022/07/27 12:49:23;;;;;;;;;;;;;;;;;;5134511;27;20047;-88
2022/07/27 12:51:48;;;;;;;;;;;;;;;;;;5134484;27;20335;-90
2022/07/27 12:54:14;;;;;;;;;;;;;;;;;;5135600;27;19916;-87
2022/07/27 12:56:39;;;;;;;;;;;;;;;;;;5135213;27;19931;-87
2022/07/27 12:59:05;;;;;;;;;;;;;;;;;;5148038;27;19916;-88
2022/07/27 13:01:30;;;;;;;;;;;;;;;;;;5141747;27;20249;-87
2022/07/27 13:03:55;;;;;;;;;;;;;;;;;;5136018;27;19976;-86
2022/07/27 13:06:21;;;;;;;;;;;;;;;;;;5141966;27;19916;-87
2022/07/27 13:08:46;;;;;;;;;;;;;;;;;;5146067;27;20328;-87
2022/07/27 13:11:11;;;;;;;;;;;;;;;;;;5145227;27;19938;-88
2022/07/27 13:13:36;;;;;;;;;;;;;;;;;;5145749;27;19912;-87
2022/07/27 13:16:02;;;;;;;;;;;;;;;;;;5138562;27;20221;-87
2022/07/27 13:18:27;;;;;;;;;;;;;;;;;;5141685;27;19907;-87
2022/07/27 13:20:52;;;;;;;;;;;;;;;;;;5151206;27;19911;-87
2022/07/27 13:23:18;;;;;;;;;;;;;;;;;;5139957;27;19915;-89
2022/07/27 13:25:43;;;;;;;;;;;;;;;;;;5137428;27;19922;-86
2022/07/27 13:28:08;;;;;;;;;;;;;;;;;;5138966;27;19994;-88
2022/07/27 13:30:34;;;;;;;;;;;;;;;;;;5138711;27;19915;-87
2022/07/27 13:32:59;;;;;;;;;;;;;;;;;;5138374;27;19947;-88
2022/07/27 13:35:25;;;;;;;;;;;;;;;;;;5138229;27;20341;-87
2022/07/27 13:37:50;;;;;;;;;;;;;;;;;;5138628;27;19915;-88
2022/07/27 13:40:15;;;;;;;;;;;;;;;;;;5144406;27;19975;-86
2022/07/27 13:42:41;;;;;;;;;;;;;;;;;;5150523;27;20363;-85
2022/07/27 13:45:06;;;;;;;;;;;;;;;;;;5138669;27;20212;-88
2022/07/27 13:47:32;;;;;;;;;;;;;;;;;;5146425;27;19915;-85
2022/07/27 13:49:57;;;;;;;;;;;;;;;;;;5146480;27;19919;-85
2022/07/27 13:52:22;;;;;;;;;;;;;;;;;;5149244;27;19937;-87
2022/07/27 13:54:48;;;;;;;;;;;;;;;;;;5122189;27;20252;-88
2022/07/27 13:57:15;;;;;;;;;;;;;;;;;;5136910;27;20220;-89
2022/07/27 13:59:41;;;;;;;;;;;;;;;;;;5140816;27;19919;-88
2022/07/27 14:02:06;;;;;;;;;;;;;;;;;;5152991;27;19966;-86
2022/07/27 14:04:34;;;;;;;;;;;;;;;;;;5140583;27;19973;-87
2022/07/27 14:06:59;;;;;;;;;;;;;;;;;;5137869;27;20249;-89
2022/07/27 14:10:30;;;;;;;;;;;;;;;;;;5137503;27;19971;-90
2022/07/27 14:12:10;;;;;;;;;;;;;;;;;;5137213;27;19916;-88
2022/07/27 14:14:35;;;;;;;;;;;;;;;;;;5137618;27;20293;-88
2022/07/27 14:17:01;;;;;;;;;;;;;;;;;;5137014;27;19919;-88
2022/07/27 14:19:27;;;;;;;;;;;;;;;;;;5137539;27;19922;-88
2022/07/27 14:21:52;;;;;;;;;;;;;;;;;;5142124;27;19915;-85
2022/07/27 14:24:17;;;;;;;;;;;;;;;;;;5146626;27;19915;-87
2022/07/27 14:26:42;;;;;;;;;;;;;;;;;;5137979;27;19915;-89
2022/07/27 14:29:08;;;;;;;;;;;;;;;;;;5137240;27;19920;-88
2022/07/27 14:31:33;;;;;;;;;;;;;;;;;;5137236;27;19916;-89
2022/07/27 14:33:59;;;;;;;;;;;;;;;;;;5137168;27;19919;-87
2022/07/27 14:36:24;;;;;;;;;;;;;;;;;;5137009;27;19911;-87
2022/07/27 14:38:51;;;;;;;;;;;;;;;;;;5137213;27;19923;-88
2022/07/27 14:41:17;;;;;;;;;;;;;;;;;;5135993;27;19916;-87
2022/07/27 14:43:42;;;;;;;;;;;;;;;;;;5147253;27;20356;-85
2022/07/27 14:46:07;;;;;;;;;;;;;;;;;;5126339;27;19997;-86
2022/07/27 14:48:32;;;;;;;;;;;;;;;;;;5136694;27;19992;-88
2022/07/27 14:50:58;;;;;;;;;;;;;;;;;;5136538;27;20268;-88
2022/07/27 14:53:24;;;;;;;;;;;;;;;;;;5136440;27;19916;-87
2022/07/27 14:55:49;;;;;;;;;;;;;;;;;;5136360;27;19920;-91
2022/07/27 14:58:14;;;;;;;;;;;;;;;;;;5137035;27;19919;-87
2022/07/27 15:00:40;;;;;;;;;;;;;;;;;;5117917;27;19923;-88
2022/07/27 15:03:06;;;;;;;;;;;;;;;;;;5136659;27;19916;-87
2022/07/27 15:05:32;;;;;;;;;;;;;;;;;;5145358;27;19994;-85
2022/07/27 15:07:57;;;;;;;;;;;;;;;;;;5137081;27;20007;-85
2022/07/27 15:10:22;;;;;;;;;;;;;;;;;;5135555;27;19915;-84
2022/07/27 15:12:48;;;;;;;;;;;;;;;;;;5136311;27;19915;-86
2022/07/27 15:15:13;;;;;;;;;;;;;;;;;;5136887;27;19916;-87
2022/07/27 15:17:38;;;;;;;;;;;;;;;;;;5135529;27;19988;-85
2022/07/27 15:20:05;;;;;;;;;;;;;;;;;;5136893;27;19922;-89
2022/07/27 15:22:30;;;;;;;;;;;;;;;;;;5137462;27;20282;-85
2022/07/27 15:24:56;;;;;;;;;;;;;;;;;;5146553;27;19925;-84
2022/07/27 15:27:21;;;;;;;;;;;;;;;;;;5147642;27;19924;-86
2022/07/27 15:29:46;;;;;;;;;;;;;;;;;;5139005;27;19916;-88
2022/07/27 15:32:12;;;;;;;;;;;;;;;;;;5136992;27;19915;-86
2022/07/27 15:34:38;;;;;;;;;;;;;;;;;;5136412;27;19929;-86
2022/07/27 15:37:06;;;;;;;;;;;;;;;;;;5135823;27;19916;-86
2022/07/27 15:39:33;;;;;;;;;;;;;;;;;;5136159;27;19947;-87
2022/07/27 15:41:59;;;;;;;;;;;;;;;;;;5135014;27;20306;-88
2022/07/27 15:44:25;;;;;;;;;;;;;;;;;;5136144;27;19923;-88
2022/07/27 15:46:50;;;;;;;;;;;;;;;;;;5139277;27;19947;-86
2022/07/27 15:49:15;;;;;;;;;;;;;;;;;;5147730;27;20015;-90
2022/07/27 15:51:41;;;;;;;;;;;;;;;;;;5135932;27;19955;-87
2022/07/27 15:54:06;;;;;;;;;;;;;;;;;;5135355;27;20233;-88
2022/07/27 15:56:31;;;;;;;;;;;;;;;;;;5136078;27;20356;-89
2022/07/27 15:58:57;;;;;;;;;;;;;;;;;;5135836;27;20327;-85
2022/07/27 16:01:22;;;;;;;;;;;;;;;;;;5134209;27;19919;-88
2022/07/27 16:03:48;;;;;;;;;;;;;;;;;;5119544;27;20235;-87
2022/07/27 16:06:13;;;;;;;;;;;;;;;;;;5135762;27;19955;-88
2022/07/27 16:08:38;;;;;;;;;;;;;;;;;;5141038;27;19922;-86
2022/07/27 16:11:04;;;;;;;;;;;;;;;;;;5150472;27;19954;-89
2022/07/27 16:13:29;;;;;;;;;;;;;;;;;;5136062;27;19965;-89
2022/07/27 16:18:39;;;;;;;;;;;;;;;;;;5135232;27;19930;-89
2022/07/27 16:21:04;;;;;;;;;;;;;;;;;;5135794;27;19920;-86
2022/07/27 16:23:29;;;;;;;;;;;;;;;;;;5135893;27;19916;-88
2022/07/27 16:25:55;;;;;;;;;;;;;;;;;;5135586;27;19915;-88
2022/07/27 16:28:21;;;;;;;;;;;;;;;;;;5134146;27;19923;-84
2022/07/27 16:30:47;;;;;;;;;;;;;;;;;;5150588;27;19908;-85
2022/07/27 16:33:12;;;;;;;;;;;;;;;;;;5142099;27;19922;-85
2022/07/27 16:35:38;;;;;;;;;;;;;;;;;;5135428;27;19919;-85
2022/07/27 16:38:03;;;;;;;;;;;;;;;;;;5135370;27;19915;-86
2022/07/27 16:40:29;;;;;;;;;;;;;;;;;;5138476;27;19937;-87
2022/07/27 16:42:55;;;;;;;;;;;;;;;;;;5139114;27;19945;-85